sensor_id;sensor_type;location;lat;lon;timestamp;temperature;humidity
71367;DHT22;60030;52.274;8.040;2022-07-04T00:01:48;19.20;99.90
71367;DHT22;60030;52.274;8.040;2022-07-04T00:04:17;19.20;99.90
71367;DHT22;60030;52.274;8.040;2022-07-04T00:06:44;19.20;99.90
71367;DHT22;60030;52.274;8.040;2022-07-04T00:09:11;19.10;99.90
71367;DHT22;60030;52.274;8.040;2022-07-04T00:11:38;19.10;99.90
71367;DHT22;60030;52.274;8.040;2022-07-04T00:14:05;19.00;99.90
71367;DHT22;60030;52.274;8.040;2022-07-04T00:16:32;19.10;99.90
71367;DHT22;60030;52.274;8.040;2022-07-04T00:19:00;19.10;99.90
71367;DHT22;60030;52.274;8.040;2022-07-04T00:21:28;19.10;99.90
71367;DHT22;60030;52.274;8.040;2022-07-04T00:23:55;19.00;99.90
71367;DHT22;60030;52.274;8.040;2022-07-04T00:26:22;19.00;99.90
71367;DHT22;60030;52.274;8.040;2022-07-04T00:28:50;19.00;99.90
71367;DHT22;60030;52.274;8.040;2022-07-04T00:31:17;19.00;99.90
71367;DHT22;60030;52.274;8.040;2022-07-04T00:33:44;19.00;99.90
71367;DHT22;60030;52.274;8.040;2022-07-04T00:36:11;19.00;99.90
71367;DHT22;60030;52.274;8.040;2022-07-04T00:38:39;19.00;99.90
71367;DHT22;60030;52.274;8.040;2022-07-04T00:41:06;18.90;99.90
71367;DHT22;60030;52.274;8.040;2022-07-04T00:43:33;18.90;99.90
71367;DHT22;60030;52.274;8.040;2022-07-04T00:46:03;18.80;99.90
71367;DHT22;60030;52.274;8.040;2022-07-04T00:48:30;18.80;99.90
71367;DHT22;60030;52.274;8.040;2022-07-04T00:50:58;18.80;99.90
71367;DHT22;60030;52.274;8.040;2022-07-04T00:53:25;18.70;99.90
71367;DHT22;60030;52.274;8.040;2022-07-04T00:55:53;18.50;99.90
71367;DHT22;60030;52.274;8.040;2022-07-04T00:58:22;18.40;99.90
71367;DHT22;60030;52.274;8.040;2022-07-04T01:00:50;18.40;99.90
71367;DHT22;60030;52.274;8.040;2022-07-04T01:03:17;18.50;99.90
71367;DHT22;60030;52.274;8.040;2022-07-04T01:05:44;18.40;99.90
71367;DHT22;60030;52.274;8.040;2022-07-04T01:08:11;18.40;99.90
71367;DHT22;60030;52.274;8.040;2022-07-04T01:10:39;18.40;99.90
71367;DHT22;60030;52.274;8.040;2022-07-04T01:13:07;18.30;99.90
71367;DHT22;60030;52.274;8.040;2022-07-04T01:15:34;18.40;99.90
71367;DHT22;60030;52.274;8.040;2022-07-04T01:18:02;18.40;99.90
71367;DHT22;60030;52.274;8.040;2022-07-04T01:20:35;18.40;99.90
71367;DHT22;60030;52.274;8.040;2022-07-04T01:23:03;18.20;99.90
71367;DHT22;60030;52.274;8.040;2022-07-04T01:25:30;18.20;99.90
71367;DHT22;60030;52.274;8.040;2022-07-04T01:27:58;18.20;99.90
71367;DHT22;60030;52.274;8.040;2022-07-04T01:30:26;18.20;99.90
71367;DHT22;60030;52.274;8.040;2022-07-04T01:32:54;18.30;99.90
71367;DHT22;60030;52.274;8.040;2022-07-04T01:35:21;18.20;99.90
71367;DHT22;60030;52.274;8.040;2022-07-04T01:37:50;18.20;99.90
71367;DHT22;60030;52.274;8.040;2022-07-04T01:40:17;18.30;99.90
71367;DHT22;60030;52.274;8.040;2022-07-04T01:42:44;18.30;99.90
71367;DHT22;60030;52.274;8.040;2022-07-04T01:45:12;18.20;99.90
71367;DHT22;60030;52.274;8.040;2022-07-04T01:47:40;18.10;99.90
71367;DHT22;60030;52.274;8.040;2022-07-04T01:50:09;18.00;99.90
71367;DHT22;60030;52.274;8.040;2022-07-04T01:52:38;18.00;99.90
71367;DHT22;60030;52.274;8.040;2022-07-04T01:55:08;17.90;99.90
71367;DHT22;60030;52.274;8.040;2022-07-04T01:57:35;18.00;99.90
71367;DHT22;60030;52.274;8.040;2022-07-04T02:00:04;18.00;99.90
71367;DHT22;60030;52.274;8.040;2022-07-04T02:02:48;18.00;99.90
71367;DHT22;60030;52.274;8.040;2022-07-04T02:05:15;17.80;99.90
71367;DHT22;60030;52.274;8.040;2022-07-04T02:07:43;17.80;99.90
71367;DHT22;60030;52.274;8.040;2022-07-04T02:10:11;17.70;99.90
71367;DHT22;60030;52.274;8.040;2022-07-04T02:12:39;17.80;99.90
71367;DHT22;60030;52.274;8.040;2022-07-04T02:15:23;17.70;99.90
71367;DHT22;60030;52.274;8.040;2022-07-04T02:17:51;17.70;99.90
71367;DHT22;60030;52.274;8.040;2022-07-04T02:20:18;17.70;99.90
71367;DHT22;60030;52.274;8.040;2022-07-04T02:22:45;17.80;99.90
71367;DHT22;60030;52.274;8.040;2022-07-04T02:25:13;17.70;99.90
71367;DHT22;60030;52.274;8.040;2022-07-04T02:27:40;17.60;99.90
71367;DHT22;60030;52.274;8.040;2022-07-04T02:30:08;17.60;99.90
71367;DHT22;60030;52.274;8.040;2022-07-04T02:32:35;17.60;99.90
71367;DHT22;60030;52.274;8.040;2022-07-04T02:35:03;17.50;99.90
71367;DHT22;60030;52.274;8.040;2022-07-04T02:37:30;17.60;99.90
71367;DHT22;60030;52.274;8.040;2022-07-04T02:39:57;17.60;99.90
71367;DHT22;60030;52.274;8.040;2022-07-04T02:42:28;17.40;99.90
71367;DHT22;60030;52.274;8.040;2022-07-04T02:44:56;17.40;99.90
71367;DHT22;60030;52.274;8.040;2022-07-04T02:47:23;17.60;99.90
71367;DHT22;60030;52.274;8.040;2022-07-04T02:49:50;17.60;99.90
71367;DHT22;60030;52.274;8.040;2022-07-04T02:52:17;17.50;99.90
71367;DHT22;60030;52.274;8.040;2022-07-04T02:54:44;17.40;99.90
71367;DHT22;60030;52.274;8.040;2022-07-04T02:57:12;17.20;99.90
71367;DHT22;60030;52.274;8.040;2022-07-04T02:59:41;16.80;99.90
71367;DHT22;60030;52.274;8.040;2022-07-04T03:02:08;16.80;99.90
71367;DHT22;60030;52.274;8.040;2022-07-04T03:04:36;17.00;99.90
71367;DHT22;60030;52.274;8.040;2022-07-04T03:07:06;17.10;99.90
71367;DHT22;60030;52.274;8.040;2022-07-04T03:09:33;17.20;99.90
71367;DHT22;60030;52.274;8.040;2022-07-04T03:12:01;17.20;99.90
71367;DHT22;60030;52.274;8.040;2022-07-04T03:14:28;17.20;99.90
71367;DHT22;60030;52.274;8.040;2022-07-04T03:16:56;17.20;99.90
71367;DHT22;60030;52.274;8.040;2022-07-04T03:19:23;17.20;99.90
71367;DHT22;60030;52.274;8.040;2022-07-04T03:21:50;17.20;99.90
71367;DHT22;60030;52.274;8.040;2022-07-04T03:24:18;17.10;99.90
71367;DHT22;60030;52.274;8.040;2022-07-04T03:26:45;17.10;99.90
71367;DHT22;60030;52.274;8.040;2022-07-04T03:29:12;17.10;99.90
71367;DHT22;60030;52.274;8.040;2022-07-04T03:31:39;17.10;99.90
71367;DHT22;60030;52.274;8.040;2022-07-04T03:34:07;17.00;99.90
71367;DHT22;60030;52.274;8.040;2022-07-04T03:36:34;17.00;99.90
71367;DHT22;60030;52.274;8.040;2022-07-04T03:39:02;17.10;99.90
71367;DHT22;60030;52.274;8.040;2022-07-04T03:41:30;17.00;99.90
71367;DHT22;60030;52.274;8.040;2022-07-04T03:43:57;17.10;99.90
71367;DHT22;60030;52.274;8.040;2022-07-04T03:46:24;17.20;99.90
71367;DHT22;60030;52.274;8.040;2022-07-04T03:48:51;17.00;99.90
71367;DHT22;60030;52.274;8.040;2022-07-04T03:51:19;16.90;99.90
71367;DHT22;60030;52.274;8.040;2022-07-04T03:53:46;16.90;99.90
71367;DHT22;60030;52.274;8.040;2022-07-04T03:56:13;17.00;99.90
71367;DHT22;60030;52.274;8.040;2022-07-04T03:58:41;17.00;99.90
71367;DHT22;60030;52.274;8.040;2022-07-04T04:01:09;17.00;99.90
71367;DHT22;60030;52.274;8.040;2022-07-04T04:03:36;17.00;99.90
71367;DHT22;60030;52.274;8.040;2022-07-04T04:06:22;17.00;99.90
71367;DHT22;60030;52.274;8.040;2022-07-04T04:08:49;17.00;99.90
71367;DHT22;60030;52.274;8.040;2022-07-04T04:11:16;17.00;99.90
71367;DHT22;60030;52.274;8.040;2022-07-04T04:13:43;16.80;99.90
71367;DHT22;60030;52.274;8.040;2022-07-04T04:16:10;16.90;99.90
71367;DHT22;60030;52.274;8.040;2022-07-04T04:18:37;16.80;99.90
71367;DHT22;60030;52.274;8.040;2022-07-04T04:21:04;16.90;99.90
71367;DHT22;60030;52.274;8.040;2022-07-04T04:23:33;16.90;99.90
71367;DHT22;60030;52.274;8.040;2022-07-04T04:26:00;16.90;99.90
71367;DHT22;60030;52.274;8.040;2022-07-04T04:28:27;16.90;99.90
71367;DHT22;60030;52.274;8.040;2022-07-04T04:30:54;16.90;99.90
71367;DHT22;60030;52.274;8.040;2022-07-04T04:33:21;17.10;99.90
71367;DHT22;60030;52.274;8.040;2022-07-04T04:35:48;17.10;99.90
71367;DHT22;60030;52.274;8.040;2022-07-04T04:38:16;17.10;99.90
71367;DHT22;60030;52.274;8.040;2022-07-04T04:40:44;17.20;99.90
71367;DHT22;60030;52.274;8.040;2022-07-04T04:43:12;17.20;99.90
71367;DHT22;60030;52.274;8.040;2022-07-04T04:45:39;17.10;99.90
71367;DHT22;60030;52.274;8.040;2022-07-04T04:48:06;17.20;99.90
71367;DHT22;60030;52.274;8.040;2022-07-04T04:50:33;17.20;99.90
71367;DHT22;60030;52.274;8.040;2022-07-04T04:53:01;17.00;99.90
71367;DHT22;60030;52.274;8.040;2022-07-04T04:55:28;17.00;99.90
71367;DHT22;60030;52.274;8.040;2022-07-04T04:57:56;17.20;99.90
71367;DHT22;60030;52.274;8.040;2022-07-04T05:00:23;17.10;99.90
71367;DHT22;60030;52.274;8.040;2022-07-04T05:02:50;17.00;99.90
71367;DHT22;60030;52.274;8.040;2022-07-04T05:05:17;16.70;99.90
71367;DHT22;60030;52.274;8.040;2022-07-04T05:07:44;16.90;99.90
71367;DHT22;60030;52.274;8.040;2022-07-04T05:10:12;17.00;99.90
71367;DHT22;60030;52.274;8.040;2022-07-04T05:12:39;17.20;99.90
71367;DHT22;60030;52.274;8.040;2022-07-04T05:15:08;17.30;99.90
71367;DHT22;60030;52.274;8.040;2022-07-04T05:17:36;17.40;99.90
71367;DHT22;60030;52.274;8.040;2022-07-04T05:20:04;17.40;99.90
71367;DHT22;60030;52.274;8.040;2022-07-04T05:22:31;17.50;99.90
71367;DHT22;60030;52.274;8.040;2022-07-04T05:24:58;17.30;99.90
71367;DHT22;60030;52.274;8.040;2022-07-04T05:27:25;17.40;99.90
71367;DHT22;60030;52.274;8.040;2022-07-04T05:29:52;17.40;99.90
71367;DHT22;60030;52.274;8.040;2022-07-04T05:32:21;17.50;99.90
71367;DHT22;60030;52.274;8.040;2022-07-04T05:34:48;17.60;99.90
71367;DHT22;60030;52.274;8.040;2022-07-04T05:37:15;17.60;99.90
71367;DHT22;60030;52.274;8.040;2022-07-04T05:39:42;17.50;99.90
71367;DHT22;60030;52.274;8.040;2022-07-04T05:42:09;17.60;99.90
71367;DHT22;60030;52.274;8.040;2022-07-04T05:44:36;17.60;99.90
71367;DHT22;60030;52.274;8.040;2022-07-04T05:47:03;17.60;99.90
71367;DHT22;60030;52.274;8.040;2022-07-04T05:49:31;17.70;99.90
71367;DHT22;60030;52.274;8.040;2022-07-04T05:51:59;17.70;99.90
71367;DHT22;60030;52.274;8.040;2022-07-04T05:54:26;17.70;99.90
71367;DHT22;60030;52.274;8.040;2022-07-04T05:56:53;17.70;99.90
71367;DHT22;60030;52.274;8.040;2022-07-04T05:59:20;17.60;99.90
71367;DHT22;60030;52.274;8.040;2022-07-04T06:01:47;17.50;99.90
71367;DHT22;60030;52.274;8.040;2022-07-04T06:04:14;17.60;99.90
71367;DHT22;60030;52.274;8.040;2022-07-04T06:06:42;17.70;99.90
71367;DHT22;60030;52.274;8.040;2022-07-04T06:09:09;17.80;99.90
71367;DHT22;60030;52.274;8.040;2022-07-04T06:11:36;17.70;99.90
71367;DHT22;60030;52.274;8.040;2022-07-04T06:14:03;17.70;99.90
71367;DHT22;60030;52.274;8.040;2022-07-04T06:16:30;17.80;99.90
71367;DHT22;60030;52.274;8.040;2022-07-04T06:18:57;17.80;99.90
71367;DHT22;60030;52.274;8.040;2022-07-04T06:21:25;17.90;99.90
71367;DHT22;60030;52.274;8.040;2022-07-04T06:23:53;18.00;99.90
71367;DHT22;60030;52.274;8.040;2022-07-04T06:26:20;17.90;99.90
71367;DHT22;60030;52.274;8.040;2022-07-04T06:28:47;18.00;99.90
71367;DHT22;60030;52.274;8.040;2022-07-04T06:31:15;17.90;99.90
71367;DHT22;60030;52.274;8.040;2022-07-04T06:33:42;18.00;99.90
71367;DHT22;60030;52.274;8.040;2022-07-04T06:36:27;18.00;99.90
71367;DHT22;60030;52.274;8.040;2022-07-04T06:38:56;18.10;99.90
71367;DHT22;60030;52.274;8.040;2022-07-04T06:41:23;18.10;99.90
71367;DHT22;60030;52.274;8.040;2022-07-04T06:43:50;18.20;99.90
71367;DHT22;60030;52.274;8.040;2022-07-04T06:46:17;18.10;99.90
71367;DHT22;60030;52.274;8.040;2022-07-04T06:48:44;18.20;99.90
71367;DHT22;60030;52.274;8.040;2022-07-04T06:51:11;18.20;99.90
71367;DHT22;60030;52.274;8.040;2022-07-04T06:53:40;18.20;99.90
71367;DHT22;60030;52.274;8.040;2022-07-04T06:56:09;18.30;99.90
71367;DHT22;60030;52.274;8.040;2022-07-04T06:58:36;18.30;99.90
71367;DHT22;60030;52.274;8.040;2022-07-04T07:01:03;18.40;99.90
71367;DHT22;60030;52.274;8.040;2022-07-04T07:03:30;18.40;99.90
71367;DHT22;60030;52.274;8.040;2022-07-04T07:05:57;18.40;99.90
71367;DHT22;60030;52.274;8.040;2022-07-04T07:08:24;18.40;99.90
71367;DHT22;60030;52.274;8.040;2022-07-04T07:10:52;18.40;99.90
71367;DHT22;60030;52.274;8.040;2022-07-04T07:13:20;18.20;99.90
71367;DHT22;60030;52.274;8.040;2022-07-04T07:15:48;18.30;99.90
71367;DHT22;60030;52.274;8.040;2022-07-04T07:18:15;18.40;99.90
71367;DHT22;60030;52.274;8.040;2022-07-04T07:20:42;18.40;99.90
71367;DHT22;60030;52.274;8.040;2022-07-04T07:23:10;18.50;99.90
71367;DHT22;60030;52.274;8.040;2022-07-04T07:25:37;18.40;99.90
71367;DHT22;60030;52.274;8.040;2022-07-04T07:28:04;18.50;99.90
71367;DHT22;60030;52.274;8.040;2022-07-04T07:30:32;18.60;99.90
71367;DHT22;60030;52.274;8.040;2022-07-04T07:33:00;18.60;99.90
71367;DHT22;60030;52.274;8.040;2022-07-04T07:35:27;18.70;99.90
71367;DHT22;60030;52.274;8.040;2022-07-04T07:37:54;18.60;99.90
71367;DHT22;60030;52.274;8.040;2022-07-04T07:40:21;18.70;99.90
71367;DHT22;60030;52.274;8.040;2022-07-04T07:42:48;18.70;99.90
71367;DHT22;60030;52.274;8.040;2022-07-04T07:45:15;18.80;99.90
71367;DHT22;60030;52.274;8.040;2022-07-04T07:47:43;18.80;99.90
71367;DHT22;60030;52.274;8.040;2022-07-04T07:50:11;18.90;99.90
71367;DHT22;60030;52.274;8.040;2022-07-04T07:52:38;18.90;99.90
71367;DHT22;60030;52.274;8.040;2022-07-04T07:55:05;18.90;99.90
71367;DHT22;60030;52.274;8.040;2022-07-04T07:57:33;18.90;99.90
71367;DHT22;60030;52.274;8.040;2022-07-04T08:00:00;19.10;99.90
71367;DHT22;60030;52.274;8.040;2022-07-04T08:02:27;19.10;99.90
71367;DHT22;60030;52.274;8.040;2022-07-04T08:05:10;19.20;99.90
71367;DHT22;60030;52.274;8.040;2022-07-04T08:07:38;19.20;99.90
71367;DHT22;60030;52.274;8.040;2022-07-04T08:10:06;19.30;99.90
71367;DHT22;60030;52.274;8.040;2022-07-04T08:12:33;19.30;99.90
71367;DHT22;60030;52.274;8.040;2022-07-04T08:15:00;19.40;99.90
71367;DHT22;60030;52.274;8.040;2022-07-04T08:17:28;19.50;99.90
71367;DHT22;60030;52.274;8.040;2022-07-04T08:19:55;19.40;99.90
71367;DHT22;60030;52.274;8.040;2022-07-04T08:22:23;19.50;99.90
71367;DHT22;60030;52.274;8.040;2022-07-04T08:24:50;19.60;99.90
71367;DHT22;60030;52.274;8.040;2022-07-04T08:27:17;19.50;99.90
71367;DHT22;60030;52.274;8.040;2022-07-04T08:29:44;19.60;99.90
71367;DHT22;60030;52.274;8.040;2022-07-04T08:32:11;19.70;99.90
71367;DHT22;60030;52.274;8.040;2022-07-04T08:34:39;19.70;99.90
71367;DHT22;60030;52.274;8.040;2022-07-04T08:37:06;19.80;99.90
71367;DHT22;60030;52.274;8.040;2022-07-04T08:39:34;19.90;99.90
71367;DHT22;60030;52.274;8.040;2022-07-04T08:42:03;19.90;99.90
71367;DHT22;60030;52.274;8.040;2022-07-04T08:44:34;19.90;99.90
71367;DHT22;60030;52.274;8.040;2022-07-04T08:47:06;20.00;99.90
71367;DHT22;60030;52.274;8.040;2022-07-04T08:49:38;20.10;99.90
71367;DHT22;60030;52.274;8.040;2022-07-04T08:52:10;20.20;99.90
71367;DHT22;60030;52.274;8.040;2022-07-04T08:54:40;20.10;99.90
71367;DHT22;60030;52.274;8.040;2022-07-04T08:57:25;20.20;99.90
71367;DHT22;60030;52.274;8.040;2022-07-04T09:00:10;20.30;99.90
71367;DHT22;60030;52.274;8.040;2022-07-04T09:02:38;20.20;99.90
71367;DHT22;60030;52.274;8.040;2022-07-04T09:05:06;20.40;99.90
71367;DHT22;60030;52.274;8.040;2022-07-04T09:07:33;20.50;99.90
71367;DHT22;60030;52.274;8.040;2022-07-04T09:10:02;20.60;99.60
71367;DHT22;60030;52.274;8.040;2022-07-04T09:12:30;20.70;99.90
71367;DHT22;60030;52.274;8.040;2022-07-04T09:14:57;20.80;99.00
71367;DHT22;60030;52.274;8.040;2022-07-04T09:17:25;20.90;99.00
71367;DHT22;60030;52.274;8.040;2022-07-04T09:20:12;20.90;98.90
71367;DHT22;60030;52.274;8.040;2022-07-04T09:22:40;21.00;98.80
71367;DHT22;60030;52.274;8.040;2022-07-04T09:25:09;21.30;98.90
71367;DHT22;60030;52.274;8.040;2022-07-04T09:27:41;21.30;98.20
71367;DHT22;60030;52.274;8.040;2022-07-04T09:30:11;21.40;97.90
71367;DHT22;60030;52.274;8.040;2022-07-04T09:32:40;21.50;97.40
71367;DHT22;60030;52.274;8.040;2022-07-04T09:35:08;21.40;97.30
71367;DHT22;60030;52.274;8.040;2022-07-04T09:37:37;21.40;97.00
71367;DHT22;60030;52.274;8.040;2022-07-04T09:40:09;21.30;95.80
71367;DHT22;60030;52.274;8.040;2022-07-04T09:42:41;21.40;95.40
71367;DHT22;60030;52.274;8.040;2022-07-04T09:45:10;21.40;95.10
71367;DHT22;60030;52.274;8.040;2022-07-04T09:47:38;21.60;94.70
71367;DHT22;60030;52.274;8.040;2022-07-04T09:50:07;21.80;94.50
71367;DHT22;60030;52.274;8.040;2022-07-04T09:52:45;21.90;94.30
71367;DHT22;60030;52.274;8.040;2022-07-04T09:55:20;22.10;94.50
71367;DHT22;60030;52.274;8.040;2022-07-04T09:57:48;22.20;93.40
71367;DHT22;60030;52.274;8.040;2022-07-04T10:00:19;22.40;92.70
71367;DHT22;60030;52.274;8.040;2022-07-04T10:02:48;22.60;92.40
71367;DHT22;60030;52.274;8.040;2022-07-04T10:05:20;22.40;91.60
71367;DHT22;60030;52.274;8.040;2022-07-04T10:07:47;22.30;91.50
71367;DHT22;60030;52.274;8.040;2022-07-04T10:10:23;22.30;91.80
71367;DHT22;60030;52.274;8.040;2022-07-04T10:12:53;22.20;91.60
71367;DHT22;60030;52.274;8.040;2022-07-04T10:15:21;22.20;91.50
71367;DHT22;60030;52.274;8.040;2022-07-04T10:17:48;22.30;91.80
71367;DHT22;60030;52.274;8.040;2022-07-04T10:20:16;22.60;90.80
71367;DHT22;60030;52.274;8.040;2022-07-04T10:22:43;22.30;90.60
71367;DHT22;60030;52.274;8.040;2022-07-04T10:32:06;22.00;90.20
71367;DHT22;60030;52.274;8.040;2022-07-04T10:34:39;22.10;89.20
71367;DHT22;60030;52.274;8.040;2022-07-04T10:37:07;22.40;87.70
71367;DHT22;60030;52.274;8.040;2022-07-04T10:39:34;22.70;87.00
71367;DHT22;60030;52.274;8.040;2022-07-04T10:42:01;22.60;87.00
71367;DHT22;60030;52.274;8.040;2022-07-04T10:44:29;22.50;87.60
71367;DHT22;60030;52.274;8.040;2022-07-04T10:47:03;22.50;86.40
71367;DHT22;60030;52.274;8.040;2022-07-04T10:49:34;22.50;86.20
71367;DHT22;60030;52.274;8.040;2022-07-04T10:52:09;22.30;85.60
71367;DHT22;60030;52.274;8.040;2022-07-04T10:54:37;22.40;85.10
71367;DHT22;60030;52.274;8.040;2022-07-04T10:57:13;22.30;83.80
71367;DHT22;60030;52.274;8.040;2022-07-04T10:59:42;22.70;84.10
71367;DHT22;60030;52.274;8.040;2022-07-04T11:02:29;22.80;82.10
71367;DHT22;60030;52.274;8.040;2022-07-04T11:05:00;23.20;81.20
71367;DHT22;60030;52.274;8.040;2022-07-04T11:07:59;23.60;78.20
71367;DHT22;60030;52.274;8.040;2022-07-04T11:10:31;23.70;77.30
71367;DHT22;60030;52.274;8.040;2022-07-04T11:13:18;24.00;74.20
71367;DHT22;60030;52.274;8.040;2022-07-04T11:16:05;23.80;73.60
71367;DHT22;60030;52.274;8.040;2022-07-04T11:18:40;23.90;73.90
71367;DHT22;60030;52.274;8.040;2022-07-04T11:21:20;24.00;74.80
71367;DHT22;60030;52.274;8.040;2022-07-04T11:23:55;24.10;73.50
71367;DHT22;60030;52.274;8.040;2022-07-04T11:26:23;24.40;72.70
71367;DHT22;60030;52.274;8.040;2022-07-04T11:28:50;24.60;71.10
71367;DHT22;60030;52.274;8.040;2022-07-04T11:31:18;24.80;70.60
71367;DHT22;60030;52.274;8.040;2022-07-04T11:33:45;24.60;68.10
71367;DHT22;60030;52.274;8.040;2022-07-04T11:36:14;24.40;68.80
71367;DHT22;60030;52.274;8.040;2022-07-04T11:38:46;24.10;69.20
71367;DHT22;60030;52.274;8.040;2022-07-04T11:41:14;24.10;70.40
71367;DHT22;60030;52.274;8.040;2022-07-04T11:44:03;24.00;71.00
71367;DHT22;60030;52.274;8.040;2022-07-04T11:46:47;23.80;71.10
71367;DHT22;60030;52.274;8.040;2022-07-04T11:49:15;23.70;71.70
71367;DHT22;60030;52.274;8.040;2022-07-04T11:51:43;24.30;72.50
71367;DHT22;60030;52.274;8.040;2022-07-04T11:54:11;24.70;68.60
71367;DHT22;60030;52.274;8.040;2022-07-04T11:56:38;24.80;68.20
71367;DHT22;60030;52.274;8.040;2022-07-04T11:59:11;25.00;68.20
71367;DHT22;60030;52.274;8.040;2022-07-04T12:01:39;25.50;67.70
71367;DHT22;60030;52.274;8.040;2022-07-04T12:04:14;26.00;66.40
71367;DHT22;60030;52.274;8.040;2022-07-04T12:06:42;25.90;65.40
71367;DHT22;60030;52.274;8.040;2022-07-04T12:09:11;25.50;64.30
71367;DHT22;60030;52.274;8.040;2022-07-04T12:11:54;24.80;65.40
71367;DHT22;60030;52.274;8.040;2022-07-04T12:14:22;25.00;66.00
71367;DHT22;60030;52.274;8.040;2022-07-04T12:17:09;25.10;64.90
71367;DHT22;60030;52.274;8.040;2022-07-04T12:19:36;25.00;64.20
71367;DHT22;60030;52.274;8.040;2022-07-04T12:22:03;24.80;64.10
71367;DHT22;60030;52.274;8.040;2022-07-04T12:24:41;24.80;65.80
71367;DHT22;60030;52.274;8.040;2022-07-04T12:27:16;24.40;66.80
71367;DHT22;60030;52.274;8.040;2022-07-04T12:29:47;24.40;67.80
71367;DHT22;60030;52.274;8.040;2022-07-04T12:32:14;24.50;68.10
71367;DHT22;60030;52.274;8.040;2022-07-04T12:34:41;24.40;68.50
71367;DHT22;60030;52.274;8.040;2022-07-04T12:37:09;24.40;68.70
71367;DHT22;60030;52.274;8.040;2022-07-04T12:39:40;25.10;66.80
71367;DHT22;60030;52.274;8.040;2022-07-04T12:42:10;25.70;65.10
71367;DHT22;60030;52.274;8.040;2022-07-04T12:44:39;26.50;64.60
71367;DHT22;60030;52.274;8.040;2022-07-04T12:47:08;26.70;62.50
71367;DHT22;60030;52.274;8.040;2022-07-04T12:49:35;26.90;61.70
71367;DHT22;60030;52.274;8.040;2022-07-04T12:52:11;27.60;61.00
71367;DHT22;60030;52.274;8.040;2022-07-04T12:54:40;28.40;58.80
71367;DHT22;60030;52.274;8.040;2022-07-04T12:57:09;28.30;57.80
71367;DHT22;60030;52.274;8.040;2022-07-04T12:59:37;27.80;57.00
71367;DHT22;60030;52.274;8.040;2022-07-04T13:02:05;26.60;58.20
71367;DHT22;60030;52.274;8.040;2022-07-04T13:04:32;26.30;59.50
71367;DHT22;60030;52.274;8.040;2022-07-04T13:07:13;26.30;59.70
71367;DHT22;60030;52.274;8.040;2022-07-04T13:09:42;27.40;57.10
71367;DHT22;60030;52.274;8.040;2022-07-04T13:12:10;27.40;57.70
71367;DHT22;60030;52.274;8.040;2022-07-04T13:14:54;28.60;55.70
71367;DHT22;60030;52.274;8.040;2022-07-04T13:17:23;27.30;56.80
71367;DHT22;60030;52.274;8.040;2022-07-04T13:19:51;26.40;58.10
71367;DHT22;60030;52.274;8.040;2022-07-04T13:22:20;25.90;58.70
71367;DHT22;60030;52.274;8.040;2022-07-04T13:24:49;25.60;59.90
71367;DHT22;60030;52.274;8.040;2022-07-04T13:27:16;25.50;60.50
71367;DHT22;60030;52.274;8.040;2022-07-04T13:29:44;26.00;60.90
71367;DHT22;60030;52.274;8.040;2022-07-04T13:32:11;27.10;58.30
71367;DHT22;60030;52.274;8.040;2022-07-04T13:34:38;26.40;59.60
71367;DHT22;60030;52.274;8.040;2022-07-04T13:37:05;26.00;60.00
71367;DHT22;60030;52.274;8.040;2022-07-04T13:39:33;26.60;58.90
71367;DHT22;60030;52.274;8.040;2022-07-04T13:42:02;27.30;57.30
71367;DHT22;60030;52.274;8.040;2022-07-04T13:44:29;27.30;57.10
71367;DHT22;60030;52.274;8.040;2022-07-04T13:46:56;27.80;56.90
71367;DHT22;60030;52.274;8.040;2022-07-04T13:49:24;27.10;57.20
71367;DHT22;60030;52.274;8.040;2022-07-04T13:51:52;27.30;57.80
71367;DHT22;60030;52.274;8.040;2022-07-04T13:54:19;26.90;59.00
71367;DHT22;60030;52.274;8.040;2022-07-04T13:56:47;26.90;59.80
71367;DHT22;60030;52.274;8.040;2022-07-04T13:59:15;27.50;59.60
71367;DHT22;60030;52.274;8.040;2022-07-04T14:01:42;28.20;57.20
71367;DHT22;60030;52.274;8.040;2022-07-04T14:04:09;27.50;57.50
71367;DHT22;60030;52.274;8.040;2022-07-04T14:06:36;27.30;57.30
71367;DHT22;60030;52.274;8.040;2022-07-04T14:09:03;27.40;58.00
71367;DHT22;60030;52.274;8.040;2022-07-04T14:11:30;27.40;58.00
71367;DHT22;60030;52.274;8.040;2022-07-04T14:13:57;27.50;59.00
71367;DHT22;60030;52.274;8.040;2022-07-04T14:16:26;27.00;59.50
71367;DHT22;60030;52.274;8.040;2022-07-04T14:18:53;26.60;59.80
71367;DHT22;60030;52.274;8.040;2022-07-04T14:21:20;26.10;60.80
71367;DHT22;60030;52.274;8.040;2022-07-04T14:23:47;26.50;61.00
71367;DHT22;60030;52.274;8.040;2022-07-04T14:26:15;26.50;60.10
71367;DHT22;60030;52.274;8.040;2022-07-04T14:28:45;26.50;60.10
71367;DHT22;60030;52.274;8.040;2022-07-04T14:31:12;26.20;60.80
71367;DHT22;60030;52.274;8.040;2022-07-04T14:33:41;26.60;59.40
71367;DHT22;60030;52.274;8.040;2022-07-04T14:36:08;27.10;58.80
71367;DHT22;60030;52.274;8.040;2022-07-04T14:38:36;27.10;58.50
71367;DHT22;60030;52.274;8.040;2022-07-04T14:41:04;26.70;58.80
71367;DHT22;60030;52.274;8.040;2022-07-04T14:43:38;26.80;59.30
71367;DHT22;60030;52.274;8.040;2022-07-04T14:46:05;26.90;59.80
71367;DHT22;60030;52.274;8.040;2022-07-04T14:48:33;27.00;59.70
71367;DHT22;60030;52.274;8.040;2022-07-04T14:51:01;26.90;59.40
71367;DHT22;60030;52.274;8.040;2022-07-04T14:53:29;27.10;59.40
71367;DHT22;60030;52.274;8.040;2022-07-04T14:55:56;27.50;58.90
71367;DHT22;60030;52.274;8.040;2022-07-04T14:58:23;27.80;57.90
71367;DHT22;60030;52.274;8.040;2022-07-04T15:00:50;27.70;58.50
71367;DHT22;60030;52.274;8.040;2022-07-04T15:03:17;28.90;56.90
71367;DHT22;60030;52.274;8.040;2022-07-04T15:05:44;29.40;55.10
71367;DHT22;60030;52.274;8.040;2022-07-04T15:08:13;29.40;54.00
71367;DHT22;60030;52.274;8.040;2022-07-04T15:10:40;30.00;52.30
71367;DHT22;60030;52.274;8.040;2022-07-04T15:13:07;30.40;50.80
71367;DHT22;60030;52.274;8.040;2022-07-04T15:15:34;30.50;50.40
71367;DHT22;60030;52.274;8.040;2022-07-04T15:18:02;30.90;48.60
71367;DHT22;60030;52.274;8.040;2022-07-04T15:20:29;30.80;48.90
71367;DHT22;60030;52.274;8.040;2022-07-04T15:23:15;30.80;48.00
71367;DHT22;60030;52.274;8.040;2022-07-04T15:25:59;30.50;48.50
71367;DHT22;60030;52.274;8.040;2022-07-04T15:28:26;31.60;47.60
71367;DHT22;60030;52.274;8.040;2022-07-04T15:30:53;30.80;47.00
71367;DHT22;60030;52.274;8.040;2022-07-04T15:33:21;30.20;47.90
71367;DHT22;60030;52.274;8.040;2022-07-04T15:35:53;29.80;47.80
71367;DHT22;60030;52.274;8.040;2022-07-04T15:38:22;29.90;47.80
71367;DHT22;60030;52.274;8.040;2022-07-04T15:40:50;30.20;47.20
71367;DHT22;60030;52.274;8.040;2022-07-04T15:43:17;31.30;46.80
71367;DHT22;60030;52.274;8.040;2022-07-04T15:45:44;32.00;44.90
71367;DHT22;60030;52.274;8.040;2022-07-04T15:48:11;32.10;45.50